Nezperce, ID (83543)

11:26 PM PST on January 27, 2015 (GMT -0800)
Highland Schools | Change Station
CLOSE
Current Station
Personal Weather Station
Location: Craigmont, ID
Elevation: 3783 ft
Nearby Weather Stations

Elev 3783 ft 46.24 °N, 116.47 °W | Updated 1 second ago

Clear
Clear
36.7 °F
Feels Like 34 °F
N
3.5
Wind Variable Wind from NW
Gusts 3.5 mph

Today
High -- | Low -- °F
--% Chance of Precip.
Yesterday
High -- | Low -- °F
Precip. -- in
7:13 AM 4:42 PM
Waxing Gibbous, 62% visible
Pressure 30.16 in
Visibility 10.0 miles
Clouds Clear
Windchill 34 °F
Dew Point 33 °F
Humidity 86%
Rainfall 0.00 in
Snow Depth Not available.
UV 0 out of 12
Pollen 2.30 out of 12
Air Quality Not available.
Flu Activity Not available.
METAR KGIC 280715Z AUTO 23007KT 10SM CLR 04/00 A3016 RMK AO1 T00390000

More Conditions Fewer Conditions

Pressure 30.16 in
Visibility 10.0 miles
Clouds Clear
Windchill 34 °F
Dew Point 33 °F
Humidity 86%
Rainfall 0.00 in
Snow Depth Not available.
UV 0 out of 12
Pollen 2.30 out of 12
Air Quality Not available.
Flu Activity Not available.
METAR KGIC 280715Z AUTO 23007KT 10SM CLR 04/00 A3016 RMK AO1 T00390000

More Conditions Fewer Conditions

10-Day Weather Forecast

Almanac

Astronomy

Jan. 27, 2015 Rise Set
Actual Time
Civil Twilight
Nautical Twilight
Astronomical Twilight
Moon
Length of Visible Light
Length of Day
Tomorrow will be .
, % of the Moon is Illuminated

Today's Extremes

State Highs State Lows

Community

WunderPhotos

Upload Photos

1,791,117 photos uploaded!

WunderBlogs® & News

Nearby

Air Quality

  Air Quality AQ Index Pollutant
Not available.

Snow Depth

Station Depth Elevation

Earthquake Activity

City Distance Mag. Time & Date
Minimum magnitude displayed is 2.5.

Coastal Water Temperatures

Place Temperature

Nearby Weather Stations